Погода Элиас-Фаустуна 2 недели

Сан-Паулу, Бразилия

22 июля-04 августа
  • 22июля
    Сегодня
    +10°
    +27°
    Ясно и безоблачно
    ВремяПогодаТемператураВлажностьДавлениеВетер, м/сВероятность осадков
    00:00Ясно и безоблачно+15°C90 %714 мм2.2 м/с5 %
    03:00Ясно и безоблачно+15°C90 %713 мм2.1 м/с5 %
    06:00Ясно и безоблачно+13°C92 %714 мм1.3 м/с5 %
    09:00Ясно и безоблачно+17°C62 %716 мм1.8 м/с5 %
    12:00Ясно и безоблачно+24°C38 %716 мм1.6 м/с5 %
    15:00Ясно и безоблачно+27°C33 %715 мм2.0 м/с5 %
    18:00Ясно и безоблачно+23°C50 %714 мм2.3 м/с5 %
    21:00Ясно и безоблачно+18°C73 %715 мм2.5 м/с5 %
  • 23июля
    Вторник
    +11°
    +28°
    Небольшая облачность
    ВремяПогодаТемператураВлажностьДавлениеВетер, м/сВероятность осадков
    00:00Ясно и безоблачно+15°C85 %715 мм2.3 м/с5 %
    03:00Ясно и безоблачно+13°C87 %714 мм2.2 м/с5 %
    06:00Ясно и безоблачно+11°C85 %714 мм2.3 м/с5 %
    09:00Ясно и безоблачно+16°C57 %716 мм1.2 м/с5 %
    12:00Ясно и безоблачно+24°C28 %716 мм1.5 м/с5 %
    15:00Небольшая облачность+27°C23 %715 мм1.3 м/с5 %
    18:00Практически безоблачно+23°C37 %714 мм3.5 м/с5 %
    21:00Небольшая облачность+18°C57 %714 мм2.7 м/с5 %
  • 24июля
    Среда
    +11°
    +28°
    Облачно с прояснениями
    ВремяПогодаТемператураВлажностьДавлениеВетер, м/сВероятность осадков
    00:00Практически безоблачно+15°C77 %714 мм2.6 м/с5 %
    03:00Практически безоблачно+14°C68 %713 мм2.6 м/с5 %
    06:00Ясно и безоблачно+13°C78 %714 мм2.3 м/с5 %
    09:00Ясно и безоблачно+16°C60 %716 мм1.7 м/с5 %
    12:00Облачно с прояснениями+24°C31 %716 мм1.5 м/с5 %
    15:00Облачно с прояснениями+27°C26 %715 мм0.2 м/с5 %
    18:00Облачно с прояснениями+26°C36 %715 мм1.4 м/с5 %
    21:00Ясно и безоблачно+18°C52 %714 мм3.2 м/с5 %
  • 25июля
    Четверг
    +14°
    +29°
    Ясно и безоблачно
    ВремяПогодаТемператураВлажностьДавлениеВетер, м/сВероятность осадков
    00:00Облачно с прояснениями+17°C68 %714 мм2.6 м/с5 %
    03:00Небольшая облачность+15°C79 %713 мм2.1 м/с5 %
    06:00Ясно и безоблачно+13°C85 %713 мм2.4 м/с5 %
    09:00Ясно и безоблачно+18°C58 %715 мм2.1 м/с5 %
    12:00Ясно и безоблачно+26°C38 %715 мм3.1 м/с5 %
    15:00Ясно и безоблачно+29°C30 %713 мм2.0 м/с5 %
    18:00Ясно и безоблачно+24°C43 %712 мм1.9 м/с5 %
    21:00Ясно и безоблачно+20°C58 %712 мм2.0 м/с5 %
  • 26июля
    Пятница
    +15°
    +29°
    Облачно с прояснениями
    ВремяПогодаТемператураВлажностьДавлениеВетер, м/сВероятность осадков
    00:00Ясно и безоблачно+18°C70 %712 мм1.9 м/с5 %
    03:00Ясно и безоблачно+16°C79 %711 мм1.7 м/с5 %
    06:00Ясно и безоблачно+15°C79 %711 мм2.3 м/с5 %
    09:00Ясно и безоблачно+18°C59 %713 мм1.7 м/с5 %
    12:00Облачно с прояснениями+26°C34 %714 мм2.2 м/с5 %
    15:00Облачно с прояснениями+28°C28 %712 мм0.7 м/с5 %
    18:00Облачно с прояснениями+25°C47 %712 мм1.8 м/с5 %
    21:00Облачно с прояснениями+20°C56 %712 мм2.6 м/с5 %
Мы используем cookies
Соглашаюсь